createdAt,value
2018-05-12T00:01:49.924Z,82.62
2018-05-12T00:04:15.753Z,82.24
2018-05-12T00:06:41.618Z,81.64
2018-05-12T00:09:07.490Z,81.59
2018-05-12T00:11:33.333Z,82.22
2018-05-12T00:13:59.152Z,83.66
2018-05-12T00:16:24.981Z,83.55
2018-05-12T00:18:50.855Z,84.14
2018-05-12T00:21:16.689Z,83.22
2018-05-12T00:23:42.500Z,83.62
2018-05-12T00:26:08.360Z,82.88
2018-05-12T00:28:34.262Z,82.78
2018-05-12T00:31:00.149Z,81.74
2018-05-12T00:33:26.034Z,81.47
2018-05-12T00:35:51.910Z,81.37
2018-05-12T00:38:17.776Z,80.94
2018-05-12T00:40:43.665Z,80.63
2018-05-12T00:43:09.490Z,80.76
2018-05-12T00:45:35.329Z,81.12
2018-05-12T00:48:01.246Z,81.62
2018-05-12T00:50:27.116Z,82.04
2018-05-12T00:52:52.997Z,82.88
2018-05-12T00:55:18.866Z,82.96
2018-05-12T00:57:44.744Z,83.25
2018-05-12T01:00:10.900Z,83.85
2018-05-12T01:02:36.740Z,85.22
2018-05-12T01:05:02.909Z,84.20
2018-05-12T01:07:28.752Z,83.96
2018-05-12T01:09:54.594Z,83.07
2018-05-12T01:12:20.448Z,82.77
2018-05-12T01:14:46.278Z,83.16
2018-05-12T01:17:12.126Z,82.71
2018-05-12T01:19:37.964Z,83.50
2018-05-12T01:22:03.802Z,84.32
2018-05-12T01:24:29.618Z,83.82
2018-05-12T01:26:55.488Z,84.51
2018-05-12T01:29:21.324Z,85.23
2018-05-12T01:31:47.159Z,84.23
2018-05-12T01:34:13.031Z,83.21
2018-05-12T01:36:38.875Z,82.52
2018-05-12T01:39:04.756Z,82.44
2018-05-12T01:41:30.574Z,81.87
2018-05-12T01:43:56.465Z,82.70
2018-05-12T01:46:22.354Z,82.94
2018-05-12T01:48:48.203Z,82.35
2018-05-12T01:51:14.024Z,81.80
2018-05-12T01:53:39.880Z,81.08
2018-05-12T01:56:05.738Z,81.22
2018-05-12T01:58:31.593Z,81.20
2018-05-12T02:00:57.405Z,81.75
2018-05-12T02:03:23.220Z,81.37
2018-05-12T02:05:49.066Z,82.83
2018-05-12T02:08:14.901Z,83.08
2018-05-12T02:10:40.795Z,83.26
2018-05-12T02:13:06.659Z,83.50
2018-05-12T02:15:32.515Z,83.64
2018-05-12T02:17:58.399Z,83.40
2018-05-12T02:20:24.253Z,83.87
2018-05-12T02:22:50.105Z,84.07
2018-05-12T02:25:15.941Z,83.39
2018-05-12T02:27:41.782Z,83.44
2018-05-12T02:30:07.614Z,82.47
2018-05-12T02:32:33.452Z,82.29
2018-05-12T02:34:59.293Z,82.62
2018-05-12T02:37:25.156Z,83.36
2018-05-12T02:39:50.997Z,82.92
2018-05-12T02:42:16.957Z,83.12
2018-05-12T02:44:42.720Z,83.59
2018-05-12T02:47:08.568Z,84.87
2018-05-12T02:49:34.409Z,84.82
2018-05-12T02:52:00.233Z,85.18
2018-05-12T02:54:26.095Z,84.50
2018-05-12T02:56:51.962Z,84.24
2018-05-12T02:59:17.852Z,83.50
2018-05-12T03:01:43.703Z,83.03
2018-05-12T03:04:09.567Z,82.71
2018-05-12T03:06:35.443Z,82.42
2018-05-12T03:09:01.284Z,82.07
2018-05-12T03:11:27.120Z,82.47
2018-05-12T03:13:53.067Z,83.06
2018-05-12T03:16:18.817Z,84.48
2018-05-12T03:18:44.703Z,84.47
2018-05-12T03:21:10.564Z,84.79
2018-05-12T03:23:36.420Z,84.19
2018-05-12T03:26:02.270Z,83.14
2018-05-12T03:28:28.088Z,82.15
2018-05-12T03:30:53.937Z,82.32
2018-05-12T03:33:19.792Z,83.13
2018-05-12T03:35:45.656Z,83.26
2018-05-12T03:38:11.518Z,83.82
2018-05-12T03:40:37.376Z,83.24
2018-05-12T03:43:03.302Z,82.69
2018-05-12T03:45:29.153Z,83.63
2018-05-12T03:47:55.024Z,82.98
2018-05-12T03:50:20.905Z,83.63
2018-05-12T03:52:46.737Z,83.43
2018-05-12T03:55:12.573Z,81.82
2018-05-12T03:57:38.428Z,80.92
2018-05-12T04:00:04.399Z,81.97
2018-05-12T04:02:30.192Z,83.24
2018-05-12T04:05:08.355Z,83.53
2018-05-12T04:07:46.630Z,83.29
2018-05-12T04:13:08.344Z,83.94
2018-05-12T04:15:34.168Z,84.24
2018-05-12T04:18:00.066Z,83.45
2018-05-12T04:20:25.902Z,83.84
2018-05-12T04:22:51.767Z,84.92
2018-05-12T04:25:17.598Z,85.52
2018-05-12T04:27:43.437Z,84.39
2018-05-12T04:30:09.314Z,84.38
2018-05-12T04:32:35.157Z,84.18
2018-05-12T04:35:00.996Z,83.74
2018-05-12T04:37:26.897Z,83.51
2018-05-12T04:39:52.756Z,83.30
2018-05-12T04:42:18.561Z,83.49
2018-05-12T04:44:44.420Z,83.35
2018-05-12T04:47:10.254Z,84.83
2018-05-12T04:49:36.094Z,84.48
2018-05-12T04:52:01.968Z,83.74
2018-05-12T04:54:27.800Z,84.16
2018-05-12T04:56:53.643Z,84.57
2018-05-12T04:59:19.591Z,82.92
2018-05-12T05:01:45.389Z,82.52
2018-05-12T05:04:11.241Z,82.90
2018-05-12T05:06:37.089Z,82.85
2018-05-12T05:09:02.984Z,82.35
2018-05-12T05:11:28.869Z,81.53
2018-05-12T05:13:54.769Z,79.95
2018-05-12T05:16:20.632Z,80.69
2018-05-12T05:18:46.503Z,80.77
2018-05-12T05:21:12.376Z,81.12
2018-05-12T05:23:38.241Z,81.60
2018-05-12T05:26:04.105Z,81.43
2018-05-12T05:28:29.946Z,80.19
2018-05-12T05:30:55.800Z,79.40
2018-05-12T05:33:21.642Z,79.24
2018-05-12T05:35:47.489Z,79.01
2018-05-12T05:38:13.392Z,79.26
2018-05-12T05:40:39.234Z,79.47
2018-05-12T05:43:05.072Z,78.82
2018-05-12T05:45:30.901Z,78.29
2018-05-12T05:47:56.744Z,77.92
2018-05-12T05:50:22.608Z,78.05
2018-05-12T05:52:48.448Z,78.27
2018-05-12T05:55:14.322Z,78.21
2018-05-12T05:57:40.197Z,78.78
2018-05-12T06:00:06.104Z,78.73
2018-05-12T06:02:31.984Z,78.41
2018-05-12T06:04:57.863Z,77.95
2018-05-12T06:07:23.718Z,77.68
2018-05-12T06:09:49.571Z,77.47
2018-05-12T06:12:15.420Z,77.17
2018-05-12T06:14:41.260Z,77.63
2018-05-12T06:17:07.149Z,77.40
2018-05-12T06:19:32.980Z,76.35
2018-05-12T06:21:58.878Z,75.00
2018-05-12T06:24:24.717Z,74.30
2018-05-12T06:26:50.574Z,74.35
2018-05-12T06:29:16.417Z,73.48
2018-05-12T06:31:42.237Z,73.23
2018-05-12T06:34:08.875Z,71.99
2018-05-12T06:36:34.720Z,70.91
2018-05-12T06:39:00.565Z,69.60
2018-05-12T06:41:26.373Z,68.39
2018-05-12T06:43:52.245Z,67.98
2018-05-12T06:46:18.070Z,68.05
2018-05-12T06:48:43.937Z,67.99
2018-05-12T06:51:09.773Z,66.53
2018-05-12T06:53:35.597Z,66.27
2018-05-12T06:56:01.471Z,65.65
2018-05-12T06:58:27.355Z,65.01
2018-05-12T07:00:53.213Z,64.39
2018-05-12T07:03:19.056Z,65.30
2018-05-12T07:05:44.924Z,64.28
2018-05-12T07:08:10.792Z,63.32
2018-05-12T07:10:36.636Z,63.33
2018-05-12T07:13:02.523Z,63.24
2018-05-12T07:15:28.370Z,62.49
2018-05-12T07:17:54.231Z,61.81
2018-05-12T07:20:20.073Z,62.02
2018-05-12T07:22:45.924Z,61.13
2018-05-12T07:34:56.798Z,60.93
2018-05-12T07:37:22.690Z,62.94
2018-05-12T07:39:48.525Z,61.03
2018-05-12T07:42:14.416Z,59.58
2018-05-12T07:44:40.280Z,59.65
2018-05-12T07:47:06.452Z,59.62
2018-05-12T07:49:32.288Z,58.67
2018-05-12T07:51:58.157Z,61.04
2018-05-12T07:54:24.060Z,58.44
2018-05-12T07:56:49.896Z,58.63
2018-05-12T07:59:15.803Z,58.35
2018-05-12T08:01:41.718Z,56.72
2018-05-12T08:04:07.635Z,56.62
2018-05-12T08:06:33.504Z,57.82
2018-05-12T08:08:59.357Z,56.94
2018-05-12T08:11:25.238Z,57.31
2018-05-12T08:13:51.099Z,56.31
2018-05-12T08:16:16.997Z,57.66
2018-05-12T08:18:43.466Z,55.81
2018-05-12T08:21:09.306Z,55.33
2018-05-12T08:26:30.012Z,53.92
2018-05-12T08:28:55.863Z,53.02
2018-05-12T08:31:21.701Z,53.42
2018-05-12T08:33:47.546Z,52.87
2018-05-12T08:36:13.401Z,54.67
2018-05-12T08:38:39.268Z,55.48
2018-05-12T08:41:05.133Z,55.02
2018-05-12T08:43:31.011Z,52.57
2018-05-12T08:45:56.902Z,53.39
2018-05-12T08:48:22.779Z,51.63
2018-05-12T08:50:48.613Z,52.23
2018-05-12T08:53:14.493Z,52.06
2018-05-12T08:55:40.338Z,51.60
2018-05-12T08:58:06.192Z,52.14
2018-05-12T09:00:32.036Z,51.79
2018-05-12T09:02:57.927Z,51.45
2018-05-12T09:05:23.781Z,49.93
2018-05-12T09:07:49.661Z,50.56
2018-05-12T09:10:15.553Z,51.20
2018-05-12T09:12:41.424Z,50.33
2018-05-12T09:15:07.297Z,49.40
2018-05-12T09:17:33.137Z,49.86
2018-05-12T09:19:59.008Z,49.94
2018-05-12T09:22:24.859Z,50.00
2018-05-12T09:24:50.727Z,49.06
2018-05-12T09:27:16.659Z,48.38
2018-05-12T09:29:42.501Z,48.44
2018-05-12T09:32:08.362Z,47.51
2018-05-12T09:34:34.217Z,47.65
2018-05-12T09:37:00.077Z,47.82
2018-05-12T09:39:25.968Z,45.79
2018-05-12T09:41:51.939Z,46.39
2018-05-12T09:44:17.794Z,48.23
2018-05-12T09:46:43.696Z,48.80
2018-05-12T09:49:09.578Z,47.45
2018-05-12T09:51:35.452Z,48.24
2018-05-12T09:54:01.321Z,48.38
2018-05-12T09:56:27.173Z,48.54
2018-05-12T09:58:53.040Z,48.95
2018-05-12T10:01:18.916Z,47.89
2018-05-12T10:03:44.993Z,47.73
2018-05-12T10:06:11.123Z,46.25
2018-05-12T10:08:37.002Z,46.24
2018-05-12T10:11:02.904Z,46.41
2018-05-12T10:13:28.745Z,47.10
2018-05-12T10:15:54.583Z,47.32
2018-05-12T10:18:20.437Z,47.57
2018-05-12T10:20:46.294Z,45.89
2018-05-12T10:23:12.148Z,45.11
2018-05-12T10:25:38.000Z,45.21
2018-05-12T10:28:03.854Z,46.55
2018-05-12T10:30:29.730Z,45.69
2018-05-12T10:32:55.626Z,45.11
2018-05-12T10:35:21.475Z,44.93
2018-05-12T10:37:47.387Z,43.55
2018-05-12T10:40:13.294Z,43.51
2018-05-12T10:42:39.174Z,45.22
2018-05-12T10:45:05.114Z,45.12
2018-05-12T10:47:31.013Z,46.43
2018-05-12T10:49:56.938Z,46.06
2018-05-12T10:52:22.812Z,44.76
2018-05-12T10:54:48.743Z,43.81
2018-05-12T10:57:14.613Z,43.58
2018-05-12T10:59:40.484Z,42.05
2018-05-12T11:02:06.399Z,40.61
2018-05-12T11:04:32.360Z,42.18
2018-05-12T11:06:58.256Z,41.43
2018-05-12T11:09:24.142Z,41.29
2018-05-12T11:11:50.041Z,42.28
2018-05-12T11:14:15.917Z,42.86
2018-05-12T11:16:41.809Z,42.17
2018-05-12T11:19:07.710Z,39.52
2018-05-12T11:21:33.688Z,39.83
2018-05-12T11:23:59.463Z,38.93
2018-05-12T11:26:25.350Z,38.92
2018-05-12T11:28:51.208Z,37.77
2018-05-12T11:31:17.024Z,36.96
2018-05-12T11:33:42.886Z,36.88
2018-05-12T11:36:08.751Z,36.95
2018-05-12T11:38:34.646Z,37.20
2018-05-12T11:41:00.492Z,35.54
2018-05-12T11:43:26.353Z,36.55
2018-05-12T11:45:52.268Z,37.62
2018-05-12T11:48:18.137Z,38.23
2018-05-12T11:50:43.990Z,38.59
2018-05-12T11:53:09.946Z,38.75
2018-05-12T11:55:35.844Z,37.56
2018-05-12T11:58:01.707Z,36.12
2018-05-12T12:00:27.597Z,34.98
2018-05-12T12:02:53.454Z,34.41
2018-05-12T12:05:19.429Z,34.46
2018-05-12T12:17:30.367Z,33.83
2018-05-12T12:19:56.288Z,32.98
2018-05-12T12:22:22.150Z,34.05
2018-05-12T12:24:48.079Z,34.67
2018-05-12T12:27:13.961Z,35.35
2018-05-12T12:29:39.801Z,34.42
2018-05-12T12:32:05.660Z,35.46
2018-05-12T12:34:31.552Z,36.90
2018-05-12T12:36:57.459Z,39.58
2018-05-12T12:39:23.354Z,39.76
2018-05-12T12:41:49.246Z,40.74
2018-05-12T12:44:15.127Z,40.38
2018-05-12T12:46:41.010Z,41.10
2018-05-12T12:49:06.860Z,40.79
2018-05-12T12:51:32.742Z,40.49
2018-05-12T12:53:58.616Z,40.74
2018-05-12T12:56:24.486Z,41.33
2018-05-12T12:58:50.359Z,41.06
2018-05-12T13:01:16.232Z,41.53
2018-05-12T13:03:42.081Z,42.88
2018-05-12T13:06:07.932Z,42.84
2018-05-12T13:08:33.789Z,43.50
2018-05-12T13:10:59.649Z,43.75
2018-05-12T13:13:25.516Z,46.74
2018-05-12T13:15:51.379Z,49.60
2018-05-12T13:18:17.226Z,50.86
2018-05-12T13:20:43.100Z,47.40
2018-05-12T13:23:08.954Z,50.87
2018-05-12T13:25:34.813Z,50.03
2018-05-12T13:28:00.689Z,48.71
2018-05-12T13:30:26.545Z,50.03
2018-05-12T13:32:52.459Z,47.85
2018-05-12T13:35:18.322Z,47.97
2018-05-12T13:37:44.181Z,47.05
2018-05-12T13:40:10.061Z,45.85
2018-05-12T13:42:35.930Z,44.77
2018-05-12T13:45:01.770Z,41.25
2018-05-12T13:47:27.635Z,40.84
2018-05-12T13:49:53.505Z,42.47
2018-05-12T13:52:19.391Z,43.07
2018-05-12T13:54:45.261Z,41.74
2018-05-12T13:57:11.146Z,43.13
2018-05-12T13:59:37.060Z,41.36
2018-05-12T14:02:02.935Z,36.41
2018-05-12T14:04:28.819Z,36.97
2018-05-12T14:06:54.666Z,39.51
2018-05-12T14:09:20.530Z,40.86
2018-05-12T14:11:46.375Z,41.55
2018-05-12T14:14:12.252Z,40.34
2018-05-12T14:16:38.130Z,42.77
2018-05-12T14:19:04.036Z,48.93
2018-05-12T14:21:29.895Z,46.31
2018-05-12T14:23:55.745Z,47.87
2018-05-12T14:26:21.735Z,46.28
2018-05-12T14:28:47.477Z,47.41
2018-05-12T14:31:13.345Z,45.92
2018-05-12T14:33:39.196Z,44.67
2018-05-12T14:36:05.049Z,38.58
2018-05-12T14:38:30.881Z,42.27
2018-05-12T14:40:56.782Z,43.83
2018-05-12T14:43:22.629Z,43.90
2018-05-12T14:45:48.480Z,44.59
2018-05-12T14:48:14.339Z,41.09
2018-05-12T14:50:40.201Z,40.59
2018-05-12T14:53:06.068Z,40.37
2018-05-12T14:55:31.912Z,39.09
2018-05-12T14:57:57.788Z,39.73
2018-05-12T15:00:23.631Z,39.07
2018-05-12T15:02:49.470Z,38.20
2018-05-12T15:05:15.314Z,38.32
2018-05-12T15:07:41.129Z,37.66
2018-05-12T15:10:06.997Z,36.64
2018-05-12T15:12:32.868Z,36.90
2018-05-12T15:14:58.755Z,37.35
2018-05-12T15:17:24.561Z,36.04
2018-05-12T15:19:50.400Z,36.55
2018-05-12T15:22:16.261Z,35.51
2018-05-12T15:24:42.110Z,37.42
2018-05-12T15:27:07.957Z,37.56
2018-05-12T15:29:33.835Z,38.68
2018-05-12T15:31:59.693Z,37.34
2018-05-12T15:34:25.540Z,38.53
2018-05-12T15:36:51.377Z,39.84
2018-05-12T15:39:17.251Z,38.38
2018-05-12T15:41:43.099Z,39.74
2018-05-12T15:44:08.967Z,39.33
2018-05-12T15:46:34.809Z,34.89
2018-05-12T15:49:00.633Z,34.82
2018-05-12T15:51:26.490Z,36.77
2018-05-12T15:53:52.409Z,38.31
2018-05-12T15:56:18.348Z,41.25
2018-05-12T15:58:44.189Z,51.29
2018-05-12T16:01:10.029Z,52.11
2018-05-12T16:03:35.929Z,55.37
2018-05-12T16:06:01.787Z,57.41
2018-05-12T16:08:27.668Z,61.48
2018-05-12T16:10:53.587Z,63.27
2018-05-12T16:13:19.465Z,63.24
2018-05-12T16:15:45.362Z,63.88
2018-05-12T16:18:11.248Z,66.06
2018-05-12T16:20:37.146Z,72.26
2018-05-12T16:23:03.025Z,73.96
2018-05-12T16:25:28.892Z,71.82
2018-05-12T16:27:54.766Z,72.60
2018-05-12T16:30:20.645Z,74.57
2018-05-12T16:32:46.476Z,74.61
2018-05-12T16:35:12.342Z,71.35
2018-05-12T16:37:38.205Z,57.21
2018-05-12T16:40:04.127Z,54.02
2018-05-12T16:42:30.015Z,57.04
2018-05-12T16:44:55.911Z,57.10
2018-05-12T16:47:21.772Z,61.81
2018-05-12T16:49:47.636Z,65.40
2018-05-12T16:52:13.505Z,68.48
2018-05-12T16:54:39.358Z,69.10
2018-05-12T16:57:05.208Z,69.22
2018-05-12T16:59:31.076Z,67.92
2018-05-12T17:01:56.978Z,64.64
2018-05-12T17:04:22.820Z,63.56
2018-05-12T17:06:48.673Z,64.88
2018-05-12T17:09:14.537Z,65.31
2018-05-12T17:11:40.433Z,71.83
2018-05-12T17:14:06.285Z,73.75
2018-05-12T17:16:33.109Z,76.06
2018-05-12T17:18:58.950Z,69.09
2018-05-12T17:21:24.870Z,70.05
2018-05-12T17:23:50.728Z,67.09
2018-05-12T17:26:16.565Z,68.11
2018-05-12T17:28:42.384Z,66.24
2018-05-12T17:31:08.232Z,64.11
2018-05-12T17:33:34.089Z,63.40
2018-05-12T17:35:59.941Z,67.95
2018-05-12T17:38:25.832Z,72.48
2018-05-12T17:40:51.684Z,74.92
2018-05-12T17:43:17.529Z,75.72
2018-05-12T17:45:43.483Z,76.46
2018-05-12T17:48:09.334Z,77.78
2018-05-12T17:50:35.230Z,78.02
2018-05-12T17:53:01.116Z,76.12
2018-05-12T17:55:26.965Z,77.80
2018-05-12T17:57:52.825Z,78.23
2018-05-12T18:00:18.677Z,75.26
2018-05-12T18:02:44.533Z,74.91
2018-05-12T18:05:10.385Z,77.06
2018-05-12T18:07:36.232Z,76.90
2018-05-12T18:10:02.163Z,78.06
2018-05-12T18:12:28.010Z,78.84
2018-05-12T18:14:53.875Z,76.89
2018-05-12T18:17:19.771Z,76.73
2018-05-12T18:19:45.633Z,77.10
2018-05-12T18:22:11.560Z,77.44
2018-05-12T18:24:37.452Z,77.18
2018-05-12T18:27:03.314Z,78.39
2018-05-12T18:29:29.188Z,77.96
2018-05-12T18:31:55.030Z,77.91
2018-05-12T18:34:20.861Z,77.45
2018-05-12T18:36:46.768Z,77.57
2018-05-12T18:39:12.642Z,78.16
2018-05-12T18:41:38.555Z,78.45
2018-05-12T18:44:04.493Z,78.85
2018-05-12T18:46:30.339Z,80.29
2018-05-12T18:48:56.212Z,80.26
2018-05-12T18:51:22.064Z,81.88
2018-05-12T18:53:47.969Z,81.01
2018-05-12T18:56:13.869Z,81.04
2018-05-12T18:58:39.775Z,82.10
2018-05-12T19:01:05.620Z,81.50
2018-05-12T19:03:31.488Z,81.08
2018-05-12T19:05:57.394Z,81.20
2018-05-12T19:08:23.333Z,81.57
2018-05-12T19:10:49.244Z,81.30
2018-05-12T19:13:15.085Z,79.60
2018-05-12T19:15:40.921Z,79.90
2018-05-12T19:18:06.882Z,78.80
2018-05-12T19:20:32.867Z,80.04
2018-05-12T19:22:58.755Z,79.79
2018-05-12T19:25:24.621Z,78.61
2018-05-12T19:27:50.504Z,78.33
2018-05-12T19:30:16.385Z,76.81
2018-05-12T19:32:42.301Z,78.30
2018-05-12T19:35:08.186Z,78.16
2018-05-12T19:37:34.116Z,79.97
2018-05-12T19:39:59.998Z,80.03
2018-05-12T19:42:25.881Z,80.58
2018-05-12T19:44:51.751Z,79.82
2018-05-12T19:47:17.653Z,81.41
2018-05-12T19:49:43.501Z,80.55
2018-05-12T19:52:09.365Z,82.51
2018-05-12T19:54:35.199Z,83.52
2018-05-12T19:57:01.095Z,83.96
2018-05-12T19:59:26.992Z,83.33
2018-05-12T20:01:52.900Z,83.11
2018-05-12T20:04:18.777Z,82.69
2018-05-12T20:06:44.661Z,82.87
2018-05-12T20:09:10.536Z,82.41
2018-05-12T20:11:36.365Z,81.93
2018-05-12T20:14:02.239Z,81.60
2018-05-12T20:16:28.092Z,81.05
2018-05-12T20:18:54.060Z,80.13
2018-05-12T20:21:19.900Z,80.42
2018-05-12T20:23:45.806Z,79.96
2018-05-12T20:26:11.636Z,80.71
2018-05-12T20:28:37.523Z,80.60
2018-05-12T20:31:03.419Z,80.26
2018-05-12T20:33:29.276Z,80.83
2018-05-12T20:35:55.196Z,81.03
2018-05-12T20:38:21.028Z,81.06
2018-05-12T20:40:46.882Z,82.30
2018-05-12T20:43:12.776Z,82.05
2018-05-12T20:45:38.644Z,82.74
2018-05-12T20:48:04.522Z,82.41
2018-05-12T20:50:30.400Z,81.83
2018-05-12T20:52:56.271Z,82.83
2018-05-12T20:55:22.175Z,82.65
2018-05-12T20:57:48.083Z,82.10
2018-05-12T21:00:13.932Z,81.89
2018-05-12T21:02:39.795Z,81.53
2018-05-12T21:05:05.688Z,82.18
2018-05-12T21:07:31.524Z,82.57
2018-05-12T21:09:57.405Z,82.33
2018-05-12T21:12:23.298Z,80.87
2018-05-12T21:14:49.153Z,80.78
2018-05-12T21:17:15.025Z,81.09
2018-05-12T21:19:40.892Z,81.02
2018-05-12T21:22:06.749Z,81.17
2018-05-12T21:24:32.593Z,80.67
2018-05-12T21:26:58.436Z,81.02
2018-05-12T21:29:24.362Z,80.65
2018-05-12T21:31:50.133Z,80.60
2018-05-12T21:34:16.010Z,81.18
2018-05-12T21:36:41.849Z,81.10
2018-05-12T21:39:07.709Z,80.95
2018-05-12T21:41:33.558Z,80.68
2018-05-12T21:43:59.385Z,81.02
2018-05-12T21:46:25.249Z,81.50
2018-05-12T21:48:51.101Z,81.68
2018-05-12T21:51:16.970Z,81.47
2018-05-12T21:53:42.801Z,81.33
2018-05-12T21:56:08.663Z,82.14
2018-05-12T21:58:34.522Z,81.51
2018-05-12T22:01:00.362Z,82.26
2018-05-12T22:03:26.197Z,82.37
2018-05-12T22:05:52.077Z,82.35
2018-05-12T22:08:17.933Z,81.78
2018-05-12T22:10:43.797Z,82.25
2018-05-12T22:13:09.608Z,82.42
2018-05-12T22:15:35.445Z,82.87
2018-05-12T22:18:01.308Z,82.57
2018-05-12T22:20:27.519Z,82.51
2018-05-12T22:22:53.375Z,82.98
2018-05-12T22:25:19.196Z,82.58
2018-05-12T22:27:45.110Z,82.30
2018-05-12T22:30:10.992Z,82.37
2018-05-12T22:32:36.884Z,82.28
2018-05-12T22:35:02.784Z,82.97
2018-05-12T22:37:29.208Z,82.97
2018-05-12T22:39:55.084Z,84.04
2018-05-12T22:42:20.941Z,84.04
2018-05-12T22:44:47.733Z,83.77
2018-05-12T22:47:13.637Z,82.80
2018-05-12T22:49:39.482Z,83.45
2018-05-12T22:52:05.348Z,83.22
2018-05-12T22:54:31.244Z,83.46
2018-05-12T22:56:57.084Z,83.88
2018-05-12T22:59:22.971Z,84.61
2018-05-12T23:01:48.847Z,85.65
2018-05-12T23:04:14.683Z,84.67
2018-05-12T23:06:40.552Z,84.57
2018-05-12T23:09:06.398Z,83.67
2018-05-12T23:11:32.264Z,84.01
2018-05-12T23:13:58.112Z,84.10
2018-05-12T23:16:23.988Z,84.10
2018-05-12T23:18:49.824Z,83.96
2018-05-12T23:21:15.681Z,84.22
2018-05-12T23:23:41.505Z,83.64
2018-05-12T23:26:07.349Z,83.78
2018-05-12T23:28:33.186Z,83.51
2018-05-12T23:30:59.047Z,82.83
2018-05-12T23:33:24.945Z,82.75
2018-05-12T23:35:50.792Z,82.78
2018-05-12T23:38:16.668Z,82.51
2018-05-12T23:40:43.075Z,82.62
2018-05-12T23:43:08.914Z,83.10
2018-05-12T23:45:34.775Z,83.69
2018-05-12T23:48:00.626Z,83.42
2018-05-12T23:50:26.464Z,83.25
2018-05-12T23:52:52.318Z,82.42
2018-05-12T23:55:18.145Z,82.95
2018-05-12T23:57:43.969Z,83.21
